createdAt,value
2019-03-04T00:01:26.295Z,7.26
2019-03-04T00:03:57.593Z,7.11
2019-03-04T00:06:31.337Z,6.94
2019-03-04T00:09:03.846Z,7.02
2019-03-04T00:11:35.469Z,7.06
2019-03-04T00:14:07.538Z,7.04
2019-03-04T00:16:38.786Z,6.76
2019-03-04T00:19:10.753Z,6.52
2019-03-04T00:21:42.939Z,6.40
2019-03-04T00:24:14.433Z,6.27
2019-03-04T00:26:46.066Z,6.12
2019-03-04T00:29:17.860Z,6.05
2019-03-04T00:32:23.857Z,6.01
2019-03-04T00:34:51.389Z,5.91
2019-03-04T00:37:19.656Z,5.81
2019-03-04T00:39:49.611Z,5.78
2019-03-04T00:42:17.524Z,5.82
2019-03-04T00:44:45.714Z,5.84
2019-03-04T00:47:13.132Z,5.79
2019-03-04T00:49:41.421Z,5.88
2019-03-04T00:52:09.372Z,5.71
2019-03-04T00:54:38.059Z,5.59
2019-03-04T00:57:06.206Z,5.50
2019-03-04T00:59:33.631Z,5.36
2019-03-04T01:02:02.535Z,5.52
2019-03-04T01:04:30.242Z,5.80
2019-03-04T01:06:58.463Z,5.97
2019-03-04T01:09:27.223Z,6.15
2019-03-04T01:11:54.629Z,6.54
2019-03-04T01:14:22.577Z,6.77
2019-03-04T01:16:51.181Z,6.87
2019-03-04T01:19:19.580Z,7.06
2019-03-04T01:21:48.118Z,7.08
2019-03-04T01:24:16.181Z,7.09
2019-03-04T01:26:43.955Z,7.11
2019-03-04T01:29:11.347Z,7.01
2019-03-04T01:31:39.654Z,7.11
2019-03-04T01:34:07.446Z,6.93
2019-03-04T01:36:35.596Z,6.93
2019-03-04T01:39:05.450Z,6.76
2019-03-04T01:41:33.607Z,6.76
2019-03-04T01:44:02.013Z,6.49
2019-03-04T01:46:30.062Z,6.50
2019-03-04T01:48:58.439Z,6.48
2019-03-04T01:51:27.411Z,6.75
2019-03-04T01:53:56.142Z,6.61
2019-03-04T01:56:24.773Z,6.73
2019-03-04T01:58:53.169Z,6.77
2019-03-04T02:01:21.597Z,6.68
2019-03-04T02:03:49.272Z,6.53
2019-03-04T02:06:17.130Z,6.52
2019-03-04T02:10:19.741Z,6.40
2019-03-04T02:14:27.860Z,6.81
2019-03-04T02:18:07.710Z,6.68
2019-03-04T02:21:55.377Z,7.09
2019-03-04T02:24:27.011Z,7.21
2019-03-04T02:26:56.663Z,7.07
2019-03-04T02:29:25.423Z,7.46
2019-03-04T02:31:53.518Z,7.75
2019-03-04T02:34:22.013Z,7.71
2019-03-04T02:36:53.112Z,7.72
2019-03-04T02:39:23.807Z,7.70
2019-03-04T02:41:52.498Z,7.81
2019-03-04T02:44:20.446Z,7.77
2019-03-04T02:46:50.228Z,7.83
2019-03-04T02:49:17.992Z,7.78
2019-03-04T02:51:45.374Z,7.95
2019-03-04T02:54:13.849Z,7.82
2019-03-04T02:56:41.890Z,7.71
2019-03-04T02:59:09.951Z,7.76
2019-03-04T03:01:38.374Z,7.64
2019-03-04T03:04:06.416Z,7.64
2019-03-04T03:06:34.791Z,7.55
2019-03-04T03:09:04.912Z,7.57
2019-03-04T03:11:32.329Z,7.57
2019-03-04T03:14:00.475Z,7.37
2019-03-04T03:16:29.143Z,7.18
2019-03-04T03:18:56.961Z,7.37
2019-03-04T03:21:24.478Z,7.30
2019-03-04T03:23:52.243Z,7.22
2019-03-04T03:26:20.609Z,7.19
2019-03-04T03:28:48.352Z,7.08
2019-03-04T03:31:16.370Z,7.06
2019-03-04T03:33:43.827Z,7.03
2019-03-04T03:36:11.502Z,7.00
2019-03-04T03:38:39.928Z,6.89
2019-03-04T03:41:08.399Z,6.88
2019-03-04T03:43:36.103Z,6.79
2019-03-04T03:46:04.091Z,6.81
2019-03-04T03:48:32.181Z,6.88
2019-03-04T03:51:00.381Z,6.95
2019-03-04T03:53:28.140Z,6.64
2019-03-04T03:55:56.265Z,6.48
2019-03-04T03:58:25.478Z,6.68
2019-03-04T04:00:53.730Z,6.62
2019-03-04T04:03:22.256Z,6.56
2019-03-04T04:05:50.219Z,6.91
2019-03-04T04:08:17.668Z,6.98
2019-03-04T04:10:46.114Z,7.02
2019-03-04T04:13:14.151Z,6.85
2019-03-04T04:15:41.842Z,6.74
2019-03-04T04:18:10.580Z,6.59
2019-03-04T04:20:38.905Z,6.56
2019-03-04T04:23:07.081Z,6.51
2019-03-04T04:25:35.388Z,6.59
2019-03-04T04:28:06.196Z,6.59
2019-03-04T04:30:34.923Z,6.71
2019-03-04T04:33:03.005Z,6.76
2019-03-04T04:35:31.228Z,6.68
2019-03-04T04:37:59.676Z,6.62
2019-03-04T04:40:30.558Z,6.55
2019-03-04T04:42:58.143Z,6.60
2019-03-04T04:45:26.217Z,6.67
2019-03-04T04:47:53.959Z,6.61
2019-03-04T04:50:21.723Z,6.48
2019-03-04T04:52:50.404Z,6.47
2019-03-04T04:55:18.441Z,6.45
2019-03-04T04:57:46.511Z,6.59
2019-03-04T05:00:14.491Z,6.70
2019-03-04T05:02:42.513Z,6.71
2019-03-04T05:05:10.886Z,6.71
2019-03-04T05:07:39.177Z,6.90
2019-03-04T05:10:09.947Z,6.98
2019-03-04T05:12:38.300Z,6.91
2019-03-04T05:15:09.427Z,6.87
2019-03-04T05:17:39.497Z,6.59
2019-03-04T05:20:10.019Z,6.55
2019-03-04T05:22:38.192Z,6.61
2019-03-04T05:25:06.409Z,6.50
2019-03-04T05:27:34.177Z,6.41
2019-03-04T05:30:01.847Z,6.44
2019-03-04T05:32:29.807Z,6.36
2019-03-04T05:34:58.477Z,6.40
2019-03-04T05:37:27.486Z,6.20
2019-03-04T05:39:56.937Z,6.20
2019-03-04T05:42:24.953Z,6.09
2019-03-04T05:44:53.033Z,6.21
2019-03-04T05:47:21.131Z,6.11
2019-03-04T05:49:48.878Z,6.28
2019-03-04T05:52:17.030Z,6.29
2019-03-04T05:54:44.865Z,6.12
2019-03-04T05:57:12.862Z,6.04
2019-03-04T05:59:40.654Z,5.92
2019-03-04T06:02:09.942Z,5.96
2019-03-04T06:04:38.514Z,5.89
2019-03-04T06:07:32.334Z,5.97
2019-03-04T06:09:59.739Z,6.05
2019-03-04T06:12:27.440Z,6.10
2019-03-04T06:14:55.175Z,6.10
2019-03-04T06:17:22.969Z,6.49
2019-03-04T06:19:51.024Z,6.69
2019-03-04T06:22:19.180Z,6.59
2019-03-04T06:24:47.050Z,6.59
2019-03-04T06:27:15.131Z,6.51
2019-03-04T06:29:43.282Z,6.43
2019-03-04T06:32:11.354Z,6.24
2019-03-04T06:34:39.881Z,6.62
2019-03-04T06:37:07.934Z,6.68
2019-03-04T06:39:35.955Z,6.95
2019-03-04T06:42:03.652Z,7.35
2019-03-04T06:44:32.067Z,7.61
2019-03-04T06:47:00.252Z,7.67
2019-03-04T06:49:28.785Z,7.82
2019-03-04T06:51:57.176Z,8.00
2019-03-04T06:54:40.654Z,8.03
2019-03-04T06:57:28.275Z,7.75
2019-03-04T07:00:35.711Z,7.69
2019-03-04T07:03:10.150Z,7.65
2019-03-04T07:05:48.796Z,7.83
2019-03-04T07:09:14.451Z,7.92
2019-03-04T07:11:46.937Z,8.18
2019-03-04T07:14:14.669Z,8.37
2019-03-04T07:16:42.643Z,8.45
2019-03-04T07:19:16.384Z,8.54
2019-03-04T07:21:44.587Z,8.59
2019-03-04T07:24:12.942Z,8.72
2019-03-04T07:26:40.832Z,8.89
2019-03-04T07:29:08.643Z,8.83
2019-03-04T07:31:36.809Z,8.92
2019-03-04T07:34:04.592Z,8.90
2019-03-04T07:36:33.212Z,8.92
2019-03-04T07:39:13.748Z,8.94
2019-03-04T07:41:43.797Z,8.99
2019-03-04T07:44:11.184Z,8.94
2019-03-04T07:46:38.698Z,8.98
2019-03-04T07:49:06.465Z,9.07
2019-03-04T07:51:34.405Z,9.11
2019-03-04T07:54:02.538Z,9.20
2019-03-04T07:56:30.642Z,9.30
2019-03-04T07:58:58.487Z,9.39
2019-03-04T08:01:27.134Z,9.52
2019-03-04T08:03:56.723Z,9.60
2019-03-04T08:06:25.075Z,9.68
2019-03-04T08:09:55.655Z,9.77
2019-03-04T08:13:16.174Z,9.82
2019-03-04T08:15:46.256Z,9.93
2019-03-04T08:18:14.335Z,10.11
2019-03-04T08:20:42.795Z,10.19
2019-03-04T08:23:10.857Z,10.22
2019-03-04T08:25:39.060Z,10.29
2019-03-04T08:28:09.030Z,10.40
2019-03-04T08:30:38.760Z,10.39
2019-03-04T08:33:06.810Z,10.43
2019-03-04T08:35:34.858Z,10.54
2019-03-04T08:38:02.735Z,10.72
2019-03-04T08:40:35.835Z,10.86
2019-03-04T08:43:03.954Z,10.97
2019-03-04T08:45:32.014Z,11.18
2019-03-04T08:48:00.562Z,11.44
2019-03-04T08:50:28.311Z,11.51
2019-03-04T08:52:56.918Z,11.59
2019-03-04T08:55:25.356Z,11.84
2019-03-04T08:57:52.758Z,11.78
2019-03-04T09:00:23.001Z,11.80
2019-03-04T09:02:50.502Z,11.84
2019-03-04T09:05:18.213Z,11.85
2019-03-04T09:07:46.089Z,11.92
2019-03-04T09:10:19.565Z,12.13
2019-03-04T09:12:47.270Z,12.13
2019-03-04T09:15:15.708Z,12.22
2019-03-04T09:17:44.203Z,12.29
2019-03-04T09:20:12.999Z,12.40
2019-03-04T09:22:40.989Z,12.45
2019-03-04T09:25:12.203Z,12.44
2019-03-04T09:27:40.282Z,12.34
2019-03-04T09:30:09.058Z,12.33
2019-03-04T09:32:36.575Z,12.34
2019-03-04T09:35:04.464Z,12.23
2019-03-04T09:37:32.656Z,12.11
2019-03-04T09:40:02.020Z,11.95
2019-03-04T09:42:30.618Z,11.73
2019-03-04T09:44:59.254Z,11.41
2019-03-04T09:47:27.565Z,11.29
2019-03-04T09:49:55.266Z,11.15
2019-03-04T09:52:23.449Z,11.11
2019-03-04T09:54:51.338Z,11.25
2019-03-04T09:57:18.981Z,11.51
2019-03-04T09:59:47.109Z,11.60
2019-03-04T10:02:26.076Z,11.86
2019-03-04T10:05:31.565Z,11.85
2019-03-04T10:08:10.032Z,11.90
2019-03-04T10:10:57.780Z,12.07
2019-03-04T10:14:02.086Z,12.26
2019-03-04T10:16:56.999Z,12.38
2019-03-04T10:20:02.112Z,13.18
2019-03-04T10:23:00.940Z,13.47
2019-03-04T10:26:06.935Z,13.30
2019-03-04T10:29:02.218Z,13.70
2019-03-04T10:32:20.815Z,13.90
2019-03-04T10:35:28.316Z,13.70
2019-03-04T10:38:34.400Z,13.56
2019-03-04T10:41:39.360Z,13.52
2019-03-04T10:44:44.865Z,13.57
2019-03-04T10:47:13.255Z,13.81
2019-03-04T10:49:40.718Z,14.03
2019-03-04T10:52:09.235Z,14.12
2019-03-04T10:54:37.090Z,14.29
2019-03-04T10:57:05.411Z,14.58
2019-03-04T10:59:33.166Z,14.55
2019-03-04T11:02:01.252Z,14.16
2019-03-04T11:04:29.325Z,13.55
2019-03-04T11:06:57.050Z,13.56
2019-03-04T11:09:25.606Z,13.32
2019-03-04T11:11:53.349Z,13.39
2019-03-04T11:14:21.393Z,12.97
2019-03-04T11:16:49.288Z,13.27
2019-03-04T11:19:17.740Z,13.42
2019-03-04T11:21:45.816Z,13.23
2019-03-04T11:24:14.169Z,13.37
2019-03-04T11:26:42.334Z,13.22
2019-03-04T11:29:10.853Z,12.97
2019-03-04T11:31:38.831Z,13.16
2019-03-04T11:34:06.926Z,12.96
2019-03-04T11:36:34.952Z,13.07
2019-03-04T11:39:15.479Z,12.97
2019-03-04T11:41:43.159Z,12.68
2019-03-04T11:44:11.529Z,12.60
2019-03-04T11:46:39.060Z,12.50
2019-03-04T11:49:06.782Z,12.64
2019-03-04T11:51:35.563Z,12.68
2019-03-04T11:54:04.169Z,12.63
2019-03-04T11:56:32.220Z,12.40
2019-03-04T11:58:59.601Z,12.44
2019-03-04T12:01:34.096Z,12.24
2019-03-04T12:04:02.200Z,12.43
2019-03-04T12:06:29.612Z,12.43
2019-03-04T12:08:57.260Z,12.35
2019-03-04T12:11:24.993Z,12.38
2019-03-04T12:13:53.349Z,12.40
2019-03-04T12:16:21.270Z,12.32
2019-03-04T12:18:49.025Z,12.42
2019-03-04T12:21:16.847Z,12.39
2019-03-04T12:23:44.662Z,12.26
2019-03-04T12:26:12.291Z,12.43
2019-03-04T12:28:40.019Z,12.22
2019-03-04T12:31:08.182Z,12.11
2019-03-04T12:33:36.243Z,12.03
2019-03-04T12:36:05.124Z,12.02
2019-03-04T12:38:33.424Z,12.10
2019-03-04T12:41:01.004Z,11.89
2019-03-04T12:43:29.041Z,11.75
2019-03-04T12:45:57.419Z,12.02
2019-03-04T12:48:25.408Z,11.93
2019-03-04T12:50:53.582Z,11.85
2019-03-04T12:53:21.651Z,11.77
2019-03-04T12:55:50.051Z,11.73
2019-03-04T12:58:18.551Z,11.76
2019-03-04T13:00:46.370Z,11.69
2019-03-04T13:03:33.885Z,11.55
2019-03-04T13:06:02.050Z,11.54
2019-03-04T13:08:29.743Z,11.46
2019-03-04T13:10:57.486Z,11.47
2019-03-04T13:13:25.235Z,11.56
2019-03-04T13:15:54.447Z,11.31
2019-03-04T13:18:22.499Z,11.36
2019-03-04T13:20:50.998Z,11.42
2019-03-04T13:23:19.096Z,11.32
2019-03-04T13:25:46.939Z,11.25
2019-03-04T13:28:14.641Z,11.31
2019-03-04T13:30:42.897Z,11.25
2019-03-04T13:33:11.070Z,11.26
2019-03-04T13:35:38.500Z,11.13
2019-03-04T13:38:06.612Z,11.18
2019-03-04T13:40:35.368Z,11.16
2019-03-04T13:43:03.956Z,11.20
2019-03-04T13:45:32.278Z,11.15
2019-03-04T13:48:00.764Z,11.15
2019-03-04T13:50:28.586Z,11.08
2019-03-04T13:52:56.545Z,11.29
2019-03-04T13:55:24.903Z,11.36
2019-03-04T13:57:52.672Z,11.29
2019-03-04T14:00:20.108Z,11.32
2019-03-04T14:02:47.853Z,11.32
2019-03-04T14:05:17.016Z,11.34
2019-03-04T14:07:45.168Z,11.27
2019-03-04T14:10:14.325Z,11.27
2019-03-04T14:12:42.211Z,11.14
2019-03-04T14:15:15.711Z,11.11
2019-03-04T14:17:43.522Z,11.08
2019-03-04T14:20:11.811Z,10.98
2019-03-04T14:22:40.521Z,10.92
2019-03-04T14:25:08.847Z,11.04
2019-03-04T14:27:36.740Z,11.02
2019-03-04T14:30:05.757Z,11.01
2019-03-04T14:32:34.266Z,11.02
2019-03-04T14:35:02.269Z,10.99
2019-03-04T14:37:30.385Z,10.98
2019-03-04T14:39:58.764Z,10.98
2019-03-04T14:42:26.496Z,10.95
2019-03-04T14:44:54.161Z,10.92
2019-03-04T14:47:22.645Z,10.91
2019-03-04T14:49:51.110Z,10.98
2019-03-04T14:52:18.894Z,11.17
2019-03-04T14:54:46.312Z,11.27
2019-03-04T14:57:14.479Z,11.36
2019-03-04T14:59:42.470Z,11.21
2019-03-04T15:02:09.858Z,11.35
2019-03-04T15:04:37.738Z,11.54
2019-03-04T15:07:06.048Z,11.37
2019-03-04T15:09:34.103Z,11.36
2019-03-04T15:12:01.480Z,11.41
2019-03-04T15:14:29.932Z,11.38
2019-03-04T15:17:03.308Z,11.35
2019-03-04T15:19:28.125Z,11.19
2019-03-04T15:21:55.889Z,10.84
2019-03-04T15:24:23.368Z,10.59
2019-03-04T15:26:52.102Z,10.82
2019-03-04T15:29:20.609Z,10.88
2019-03-04T15:31:48.576Z,11.34
2019-03-04T15:34:17.067Z,11.71
2019-03-04T15:36:45.953Z,11.66
2019-03-04T15:39:22.855Z,11.58
2019-03-04T15:41:46.307Z,10.95
2019-03-04T15:44:14.508Z,10.89
2019-03-04T15:46:42.232Z,10.98
2019-03-04T15:49:10.434Z,11.02
2019-03-04T15:51:37.822Z,11.09
2019-03-04T15:54:06.232Z,10.89
2019-03-04T15:56:35.545Z,10.78
2019-03-04T15:59:03.598Z,10.81
2019-03-04T16:01:32.078Z,10.74
2019-03-04T16:04:00.608Z,10.82
2019-03-04T16:06:28.913Z,10.82
2019-03-04T16:08:56.724Z,10.76
2019-03-04T16:11:24.833Z,10.75
2019-03-04T16:13:56.091Z,10.70
2019-03-04T16:16:23.272Z,10.77
2019-03-04T16:18:51.559Z,10.65
2019-03-04T16:21:19.692Z,10.67
2019-03-04T16:23:48.409Z,10.66
2019-03-04T16:26:16.836Z,10.64
2019-03-04T16:28:44.537Z,10.57
2019-03-04T16:31:12.200Z,10.49
2019-03-04T16:33:40.607Z,10.55
2019-03-04T16:36:08.664Z,10.52
2019-03-04T16:38:37.182Z,10.53
2019-03-04T16:41:04.567Z,10.49
2019-03-04T16:43:33.393Z,10.34
2019-03-04T16:46:01.535Z,10.13
2019-03-04T16:48:29.703Z,9.03
2019-03-04T16:50:58.028Z,8.26
2019-03-04T16:53:26.705Z,7.84
2019-03-04T16:55:55.177Z,7.57
2019-03-04T16:58:27.748Z,7.42
2019-03-04T17:00:56.051Z,7.28
2019-03-04T17:03:24.152Z,7.32
2019-03-04T17:05:52.145Z,7.20
2019-03-04T17:08:20.751Z,7.09
2019-03-04T17:10:50.350Z,6.92
2019-03-04T17:13:18.448Z,6.92
2019-03-04T17:15:46.799Z,6.75
2019-03-04T17:18:14.804Z,6.79
2019-03-04T17:20:42.848Z,6.64
2019-03-04T17:23:13.029Z,6.58
2019-03-04T17:25:42.972Z,6.58
2019-03-04T17:28:11.452Z,6.58
2019-03-04T17:30:40.089Z,6.51
2019-03-04T17:33:08.110Z,6.33
2019-03-04T17:35:35.923Z,6.55
2019-03-04T17:38:03.750Z,6.47
2019-03-04T17:40:32.227Z,6.68
2019-03-04T17:42:59.952Z,6.50
2019-03-04T17:45:28.464Z,6.44
2019-03-04T17:47:56.257Z,6.42
2019-03-04T17:50:27.915Z,6.52
2019-03-04T17:52:55.733Z,6.35
2019-03-04T17:55:24.381Z,6.38
2019-03-04T17:57:52.598Z,6.43
2019-03-04T18:00:20.395Z,6.45
2019-03-04T18:02:48.983Z,6.52
2019-03-04T18:07:57.269Z,6.54
2019-03-04T18:10:30.740Z,6.58
2019-03-04T18:13:02.290Z,6.50
2019-03-04T18:15:34.406Z,6.55
2019-03-04T18:18:07.501Z,6.58
2019-03-04T18:20:40.348Z,6.54
2019-03-04T18:23:14.519Z,6.54
2019-03-04T18:25:56.911Z,6.51
2019-03-04T18:29:33.853Z,6.51
2019-03-04T18:33:17.021Z,6.41
2019-03-04T18:37:01.372Z,6.29
2019-03-04T18:40:22.830Z,6.24
2019-03-04T18:43:45.770Z,6.21
2019-03-04T18:46:49.604Z,6.20
2019-03-04T18:49:26.364Z,6.03
2019-03-04T18:51:59.766Z,6.03
2019-03-04T18:54:32.802Z,6.04
2019-03-04T18:57:07.147Z,5.96
2019-03-04T18:59:39.839Z,5.94
2019-03-04T19:02:12.610Z,5.89
2019-03-04T19:04:46.062Z,5.82
2019-03-04T19:07:20.074Z,5.79
2019-03-04T19:09:53.653Z,5.69
2019-03-04T19:12:27.036Z,5.70
2019-03-04T19:15:00.314Z,5.65
2019-03-04T19:17:33.721Z,5.69
2019-03-04T19:20:10.575Z,5.72
2019-03-04T19:22:43.301Z,5.63
2019-03-04T19:25:16.613Z,5.59
2019-03-04T19:27:48.516Z,5.59
2019-03-04T19:30:21.828Z,5.58
2019-03-04T19:32:55.608Z,5.50
2019-03-04T19:35:28.653Z,5.51
2019-03-04T19:38:05.273Z,5.44
2019-03-04T19:40:39.477Z,5.41
2019-03-04T19:43:11.611Z,5.40
2019-03-04T19:45:44.162Z,5.32
2019-03-04T19:48:17.629Z,5.30
2019-03-04T19:50:51.637Z,5.23
2019-03-04T19:53:25.287Z,5.16
2019-03-04T19:55:58.270Z,5.10
2019-03-04T19:58:30.981Z,5.11
2019-03-04T20:01:04.652Z,5.17
2019-03-04T20:03:37.978Z,4.91
2019-03-04T20:06:11.006Z,5.05
2019-03-04T20:08:44.424Z,5.03
2019-03-04T20:11:17.811Z,4.88
2019-03-04T20:13:50.439Z,5.04
2019-03-04T20:16:24.285Z,4.91
2019-03-04T20:18:58.257Z,4.80
2019-03-04T20:21:31.182Z,4.94
2019-03-04T20:24:04.624Z,4.84
2019-03-04T20:26:38.765Z,4.68
2019-03-04T20:29:11.796Z,4.81
2019-03-04T20:31:44.821Z,4.80
2019-03-04T20:34:18.995Z,4.79
2019-03-04T20:36:52.805Z,4.70
2019-03-04T20:39:26.921Z,4.79
2019-03-04T20:42:00.897Z,4.72
2019-03-04T20:44:34.173Z,4.74
2019-03-04T20:47:07.302Z,4.75
2019-03-04T20:49:40.503Z,4.72
2019-03-04T20:52:14.129Z,4.65
2019-03-04T20:54:47.996Z,4.77
2019-03-04T20:57:21.399Z,4.71
2019-03-04T20:59:54.779Z,4.76
2019-03-04T21:02:28.141Z,4.72
2019-03-04T21:05:01.543Z,4.62
2019-03-04T21:07:34.285Z,4.65
2019-03-04T21:10:08.617Z,4.72
2019-03-04T21:12:42.742Z,4.75
2019-03-04T21:15:17.661Z,4.70
2019-03-04T21:17:50.589Z,4.83
2019-03-04T21:20:23.631Z,4.70
2019-03-04T21:22:56.631Z,4.70
2019-03-04T21:26:22.645Z,4.83
2019-03-04T21:29:37.859Z,4.59
2019-03-04T21:32:51.659Z,4.58
2019-03-04T21:36:50.427Z,4.52
2019-03-04T21:39:31.840Z,4.52
2019-03-04T21:42:26.048Z,4.28
2019-03-04T21:45:45.528Z,4.26
2019-03-04T21:48:34.793Z,4.48
2019-03-04T21:51:38.443Z,4.28
2019-03-04T21:54:11.257Z,4.27
2019-03-04T21:57:06.868Z,4.34
2019-03-04T21:59:40.181Z,4.30
2019-03-04T22:02:22.649Z,4.19
2019-03-04T22:04:56.561Z,4.25
2019-03-04T22:07:29.852Z,4.29
2019-03-04T22:10:03.438Z,4.10
2019-03-04T22:12:36.536Z,4.27
2019-03-04T22:15:09.655Z,4.19
2019-03-04T22:17:44.129Z,4.17
2019-03-04T22:20:18.357Z,4.22
2019-03-04T22:22:51.862Z,4.09
2019-03-04T22:25:23.568Z,4.18
2019-03-04T22:27:56.619Z,4.05
2019-03-04T22:30:30.342Z,3.97
2019-03-04T22:33:04.468Z,4.11
2019-03-04T22:35:38.297Z,4.07
2019-03-04T22:38:12.327Z,4.17
2019-03-04T22:40:45.814Z,4.11
2019-03-04T22:43:17.452Z,4.21
2019-03-04T22:45:50.337Z,4.42
2019-03-04T22:48:22.462Z,4.24
2019-03-04T22:50:54.566Z,4.27
2019-03-04T22:53:27.386Z,4.09
2019-03-04T22:56:00.119Z,4.05
2019-03-04T22:58:33.708Z,4.19
2019-03-04T23:01:59.924Z,4.10
2019-03-04T23:04:57.928Z,4.03
2019-03-04T23:07:55.346Z,3.96
2019-03-04T23:10:52.114Z,4.03
2019-03-04T23:13:53.693Z,4.13
2019-03-04T23:16:30.459Z,4.35
2019-03-04T23:19:03.093Z,4.25
2019-03-04T23:21:36.631Z,4.47
2019-03-04T23:24:09.780Z,4.55
2019-03-04T23:26:42.822Z,4.57
2019-03-04T23:29:15.904Z,4.44
2019-03-04T23:31:49.285Z,4.56
2019-03-04T23:34:22.899Z,4.33
2019-03-04T23:36:56.943Z,4.32
2019-03-04T23:39:29.664Z,4.32
2019-03-04T23:42:05.038Z,4.31
2019-03-04T23:44:38.341Z,4.43
2019-03-04T23:47:11.083Z,4.35
2019-03-04T23:49:43.892Z,4.44
2019-03-04T23:52:17.407Z,4.54
2019-03-04T23:54:51.272Z,4.66
2019-03-04T23:57:25.410Z,4.65
2019-03-04T23:59:58.882Z,4.62
